• Join FlightAware (Why Join?)
  • Login
  • US Flag 
05:23PM EDT


 

Airport Tracker/Info


-or-


 

Live Flight TrackerFlight Track Log ✈ SWA22 ✈ 13-Apr-2013 ✈ KBWI - KMDW

Flight Track Log - Related Links

Times and Time Zones

All times are in EDT time to prevent confusion due to time zone crossing. See the SWA22 flight status page for this flight to view local times or setup timezone preferences in your user account.

Time Position Orientation Groundspeed Altitude Reporting Facility
EDT Latitude Longitude Course Direction KTS MPH feet Rate Location/Type
06:49PM 39.1833 -76.7667 211° Southwest 211 243 3,800  Level Potomac TRACON
06:50PM 39.2000 -76.8500 284° West 255 293 7,000 4,200 Climbing Potomac TRACON
06:51PM 39.2167 -76.9333 284° West 248 285 11,800 3,720 Climbing Potomac TRACON
06:53PM 39.2125 -77.0944 268° West 267 307 17,400 3,420 Climbing Washington Center
06:54PM 39.1800 -77.1900 246° West 293 337 21,400 2,820 Climbing Washington Center
06:55PM 39.0635 -77.2599 211° Southwest  Level FlightAware Approximate
06:55PM 39.1144 -77.2689 223° Southwest 297 342 23,000  Level Washington Center
06:56PM 39.0961 -77.3836 258° West 311 358 25,300 2,160 Climbing Washington Center
06:57PM 39.0775 -77.5008 258° West 325 374 27,400 2,280 Climbing Washington Center
06:58PM 39.0589 -77.6231 259° West 347 399 29,900 2,580 Climbing Washington Center
06:59PM 39.0378 -77.7536 258° West 352 405 32,600 2,220 Climbing Washington Center
07:00PM 39.0192 -77.8625 258° West 352 405 34,400 1,800 Climbing Washington Center
07:01PM 38.9978 -78.0008 259° West 358 412 36,300 1,500 Climbing Washington Center
07:02PM 38.9742 -78.1256 256° West 358 412 37,400 840 Climbing Washington Center
07:03PM 38.9611 -78.2558 263° West 358 412 38,000 300 Climbing Washington Center
07:04PM 38.9644 -78.3867 272° West 363 418 38,000 420 Level Washington Center
07:05PM 38.9675 -78.5178 272° West 363 418 38,900 960 Climbing Washington Center
07:06PM 38.9706 -78.6461 272° West 369 425 40,000 540 Climbing Washington Center
07:07PM 38.9742 -78.7503 273° West 362 417 40,000  Level Washington Center
07:08PM 38.9783 -78.9053 272° West 362 417 40,000  Level Washington Center
07:09PM 38.9808 -79.0336 271° West 362 417 40,000  Level Washington Center
07:10PM 38.9856 -79.1622 273° West 362 417 40,000  Level Washington Center
07:11PM 38.9878 -79.2906 271° West 367 422 40,000  Level Washington Center
07:12PM 38.9900 -79.4189 271° West 367 422 40,000  Level Washington Center
07:13PM 38.9942 -79.5472 272° West 367 422 40,000  Level Washington Center
07:14PM 39.0006 -79.6706 274° West 372 428 40,000  Level Washington Center
07:15PM 39.0042 -79.8122 272° West 379 436 40,000  Level Washington Center
07:17PM 39.0042 -80.0903 270° West 367 422 40,000  Level Indianapolis Center
07:18PM 39.0064 -80.2211 271° West 367 422 40,000  Level Indianapolis Center
07:19PM 39.0375 -80.3486 287° West 387 445 40,000  Level Indianapolis Center
07:20PM 39.0894 -80.4697 299° West 388 447 40,000  Level Indianapolis Center
07:21PM 39.1408 -80.5900 299° West 386 444 40,000  Level Indianapolis Center
07:22PM 39.1917 -80.7103 299° West 385 443 40,000  Level Indianapolis Center
07:23PM 39.2433 -80.8314 299° West 387 445 40,000  Level Indianapolis Center
07:24PM 39.3061 -80.9764 299° West 388 447 40,000  Level Indianapolis Center
07:25PM 39.3572 -81.0939 299° West 378 435 40,000  Level Indianapolis Center
07:26PM 39.4083 -81.2181 298° West 389 448 40,000  Level Indianapolis Center
07:27PM 39.4597 -81.3394 299° West 388 447 40,000  Level Indianapolis Center
07:28PM 39.5108 -81.4625 298° West 390 449 40,000  Level Indianapolis Center
07:29PM 39.5625 -81.5839 299° West 387 445 40,000  Level Indianapolis Center
07:30PM 39.6136 -81.7067 298° West 388 447 40,000  Level Indianapolis Center
07:31PM 39.6633 -81.8289 298° West 385 443 40,000  Level Indianapolis Center
07:32PM 39.7150 -81.9533 298° West 383 441 40,000  Level Indianapolis Center
07:33PM 39.7656 -82.0767 298° West 384 442 40,000  Level Indianapolis Center
07:34PM 39.8167 -82.1989 299° West 383 441 40,000  Level Indianapolis Center
07:35PM 39.8656 -82.3203 298° West 377 434 40,000  Level Indianapolis Center
07:36PM 39.9158 -82.4436 298° West 382 440 40,000  Level Indianapolis Center
07:37PM 39.9658 -82.5686 298° West 384 442 40,000  Level Indianapolis Center
07:38PM 40.0167 -82.6939 298° West 388 447 40,000  Level Indianapolis Center
07:39PM 40.0678 -82.8211 298° West 393 452 40,000  Level Indianapolis Center
07:41PM 40.1269 -82.9694 298° West 395 455 40,000  Level Indianapolis Center
07:42PM 40.1778 -83.0953 298° West 392 451 40,000  Level Indianapolis Center
07:43PM 40.2272 -83.2219 297° West 390 449 40,000 -120 Level Indianapolis Center
07:44PM 40.2772 -83.3483 297° West 391 450 39,800 -600 Descending Indianapolis Center
07:45PM 40.3261 -83.4733 297° West 387 445 38,800 -1,020 Descending Indianapolis Center
07:46PM 40.3744 -83.5972 297° West 382 440 37,800 -1,080 Descending Indianapolis Center
07:47PM 40.4228 -83.7197 297° West 377 434 36,700 -900 Descending Indianapolis Center
07:48PM 40.4706 -83.8439 297° West 379 436 36,000 -360 Descending Indianapolis Center
07:49PM 40.5178 -83.9658 297° West 374 430 36,000  Level Indianapolis Center
07:50PM 40.5644 -84.0858 297° West 369 425 36,000  Level Indianapolis Center
07:51PM 40.6119 -84.2089 297° West 372 428 36,000 -300 Level Indianapolis Center
07:52PM 40.6589 -84.3322 297° West 374 430 35,400 -1,680 Descending Indianapolis Center
07:53PM 40.7056 -84.4558 297° West 374 430 32,600 -2,580 Descending Indianapolis Center
07:54PM 40.7478 -84.5719 296° West 352 405 30,200 -1,320 Descending Indianapolis Center
07:55PM 40.7897 -84.6797 297° West 331 381 30,000 -120 Descending Indianapolis Center
07:56PM 40.8303 -84.7886 296° West 329 379 30,000  Level Indianapolis Center
07:57PM 40.8861 -84.8867 307° West 332 382 30,000  Level Indianapolis Center
07:58PM 40.9425 -84.9853 307° West 333 383 30,000  Level Indianapolis Center
07:59PM 40.9978 -85.0839 307° West 332 382 30,000  Level Indianapolis Center
08:00PM 41.0542 -85.1803 308° West 331 381 30,000 -660 Level Indianapolis Center
08:01PM 41.1111 -85.2819 307° West 339 390 28,700 -1,080 Descending Indianapolis Center
08:02PM 41.1739 -85.3944 307° West 373 429 27,900 -900 Descending Indianapolis Center
08:02PM 41.1936 -85.4308 306° West 371 427 27,600 -1,080 Descending Chicago Center
08:03PM 41.2569 -85.5447 307° West 380 437 26,600 -1,080 Descending Chicago Center
08:04PM 41.3203 -85.6575 307° West 380 437 25,500 -1,080 Descending Chicago Center
08:05PM 41.3831 -85.7711 306° West 379 436 24,500 -1,080 Descending Chicago Center
08:06PM 41.4222 -85.8969 293° West 371 427 23,400 -2,040 Descending Chicago Center
08:07PM 41.4478 -86.0233 285° West 353 406 20,400 -3,000 Descending Chicago Center
08:08PM 41.4722 -86.1422 285° West 337 388 17,400 -3,000 Descending Chicago Center
08:09PM 41.4944 -86.2542 285° West 320 368 14,400 -2,880 Descending Chicago Center
08:10PM 41.5158 -86.3589 285° West 298 343 11,600 -2,100 Descending Chicago Center
08:11PM 41.5225 -86.4886 274° West 295 339 10,100 -840 Descending Chicago Center
08:12PM 41.5211 -86.5872 269° West 261 300 10,000 -60 Descending Chicago Center
08:13PM 41.5206 -86.6736 270° West 235 270 10,000  Level Chicago Center
08:14PM 41.5211 -86.7558 271° West 233 268 10,000  Level Chicago Center
08:15PM 41.5197 -86.8422 269° West 232 267 10,000 -60 Level Chicago Center
08:16PM 41.5183 -86.9283 269° West 232 267 9,900 -900 Descending Chicago Center
08:17PM 41.5164 -87.0278 269° West 225 259 8,200 -1,380 Descending Chicago Center
08:18PM 41.5256 -87.1067 279° West 218 251 7,100 -1,080 Descending Chicago Center
08:19PM 41.5500 -87.1667 299° West 239 275 6,300 -1,020 Descending Chicago TRACON
08:20PM 41.5667 -87.2500 285° West 241 277 5,300 -1,020 Descending Chicago TRACON
08:21PM 41.6000 -87.3333 298° West 242 278 4,300 -540 Descending Chicago TRACON
08:22PM 41.6167 -87.4167 285° West 236 272 4,300  Level Chicago TRACON
08:22PM 41.6214 -87.4347 289° West 238 274 4,300 -120 Level Chicago Center
08:23PM 41.6447 -87.5144 291° West 236 272 4,200 -180 Descending Chicago Center
08:25PM 41.6639 -87.5808 291° West 215 247 4,000 -840 Descending Chicago Center
08:26PM 41.7075 -87.6450 312° West 204 235 2,600 -1,380 Descending Chicago Center
08:26PM 41.7333 -87.6667 328° Northwest 194 223 1,900 -840 Descending Chicago TRACON
08:27PM 41.7500 -87.7167 294° West 126 145 1,300 -600 Descending Chicago TRACON